Terminal Aerodrome Forecast
Issued by NWS Topeka, KS

Home | Current Version | Previous Version | Text Only | Print | Product List | Glossary Off
Versions: 1 2 3 4 5 6 7 8 9 10 11 12 13 14 15 16 17 18 19 20 21 22 23 24 25

669
FTUS43 KTOP 272320
TAFTOP
TAF
KTOP 272320Z 2800/2824 09005KT P6SM -SHRA OVC070
     FM280700 08009KT P6SM SHRA VCTS SCT020 OVC045CB
     FM280900 09013KT P6SM SHRA VCTS BKN018 OVC030CB
     FM281100 10011KT P6SM VCSH OVC009
     FM281700 17007KT P6SM OVC015
     FM282100 24005KT P6SM BKN035=

USA.gov is the U.S. government's official web portal to all federal, state and local government web resources and services.